Česky Dansk Deutsch English Español Suomi Français Magyar Italiano Nederlands norsk Polski Português svenska Türkçe

 

Het Weer

Creil Fafb (Frankrijk)

11:30, 23 août 2016 (GMT)

NWNNE
WE
SWSSE
Home            
Creil Fafb Paris-Aeroport Charles De Gaulle Paris / Le Bourget Beauvais Paris Met Center Paris-Orly Villacoublay Melun Saint-Quentin Rouen Evreux Abbeville Reims Chartres Toussus Le Noble Cambrai Chalons-Vatry Suippes Range Met Vittefleur / St. Vale Troyes Orleans Lille Le Touquet

Om een weerknop op uw website of weblog te plaatsen, copieer onderstaande code en plak die in uw pagina. In het eerste vakje staat HTML-code, in het tweede vakje UBB-code.


Add to Google

Details

Wind speed:3 bf, 8 kn, 4.1 m/s, 9.2 miles/h, 14.8 km/h
Wind direction:E, 080° - SSW, 200°
Näkyvyys:Supérieure à 10000 m, 10 km, 32800 ft, 6.2 miles
Clouds:CAVOC
Température:29°C, 84°F
Température ressentie:28°C, 83°F
Point de rosée:14°C, 57°F
Pression atmosphérique:1024 hPa, 768.1 mmHg, 30.24 inHg, 1.011 atm
Humidité relative:39.9 %
METAR:LFPC 231130Z AUTO 15008KT 080V200 CAVOK 29/14 Q1024

Snelkoppelingen

Actuele weersinformatie van de hele wereld. Voeg locaties toe met het plus (+) symbool. Deze snelkoppelingen kunnen worden toegevoegd aan Google.

Lid van de Technetium groep

website free tracking
StatCounter NetStat W3C Validator

29-09-2022 03:17:25
astro.technetium.be money.technetium.be phote.technetium.be tafeltennistafel.technetium.be www.ligfiets.net